Aviation Digital Data Service (ADDS)

Output produced by METARs form (1805 UTC 16 October 2021)
found at http://www.aviationweather.gov/metar/data/
 
METAR text: RJNW 161000Z VRB03KT 5000 -SHRA BR FEW000 SCT030 BKN050 14/14 Q1011
Conditions at: RJNW (NOTO , JP) observed 1000 UTC 16 October 2021
Temperature: 14.0°C (57°F)
Dewpoint: 14.0°C (57°F) [RH = 100%]
Pressure (altimeter): 29.85 inches Hg (1011.0 mb)
Winds: variable direction winds at 3 MPH (3 knots; 1.5 m/s)
Visibility: 3 miles ( 5 km)
Ceiling: 5000 feet AGL
Clouds: few clouds at 0 feet AGL
scattered clouds at 3000 feet AGL
broken clouds at 5000 feet AGL
Weather: -SHRA BR  (light rain showers, mist)

METAR text: RJNW 160900Z 31007KT 240V030 5000 SHRA BR FEW000 SCT005 BKN040 15/14 Q1011
Conditions at: RJNW (NOTO , JP) observed 0900 UTC 16 October 2021
Temperature: 15.0°C (59°F)
Dewpoint: 14.0°C (57°F) [RH = 94%]
Pressure (altimeter): 29.85 inches Hg (1011.0 mb)
Winds: from the NW (310 degrees) at 8 MPH (7 knots; 3.6 m/s)
Visibility: 3 miles ( 5 km)
Ceiling: 4000 feet AGL
Clouds: few clouds at 0 feet AGL
scattered clouds at 500 feet AGL
broken clouds at 4000 feet AGL
Weather: SHRA BR  (rain showers, mist)

METAR text: RJNW 160800Z VRB03KT 7000 -SHRA FEW003 SCT015 BKN050 17/16 Q1011
Conditions at: RJNW (NOTO , JP) observed 0800 UTC 16 October 2021
Temperature: 17.0°C (63°F)
Dewpoint: 16.0°C (61°F) [RH = 94%]
Pressure (altimeter): 29.85 inches Hg (1011.0 mb)
Winds: variable direction winds at 3 MPH (3 knots; 1.5 m/s)
Visibility: 4 miles ( 7 km)
Ceiling: 5000 feet AGL
Clouds: few clouds at 300 feet AGL
scattered clouds at 1500 feet AGL
broken clouds at 5000 feet AGL
Weather: -SHRA  (light rain showers)

METAR text: RJNW 160700Z 30004KT 250V010 8000 -SHRA FEW005 SCT015 BKN020 18/17 Q1010
Conditions at: RJNW (NOTO , JP) observed 0700 UTC 16 October 2021
Temperature: 18.0°C (64°F)
Dewpoint: 17.0°C (63°F) [RH = 94%]
Pressure (altimeter): 29.82 inches Hg (1010.0 mb)
Winds: from the WNW (300 degrees) at 5 MPH (4 knots; 2.1 m/s)
Visibility: 5 miles ( 8 km)
Ceiling: 2000 feet AGL
Clouds: few clouds at 500 feet AGL
scattered clouds at 1500 feet AGL
broken clouds at 2000 feet AGL
Weather: -SHRA  (light rain showers)

METAR text: RJNW 160600Z 26007KT 240V300 9999 FEW010 SCT015 BKN020 20/18 Q1010
Conditions at: RJNW (NOTO , JP) observed 0600 UTC 16 October 2021
Temperature: 20.0°C (68°F)
Dewpoint: 18.0°C (64°F) [RH = 88%]
Pressure (altimeter): 29.82 inches Hg (1010.0 mb)
Winds: from the W (260 degrees) at 8 MPH (7 knots; 3.6 m/s)
Visibility: 6 or more miles (10+ km)
Ceiling: 2000 feet AGL
Clouds: few clouds at 1000 feet AGL
scattered clouds at 1500 feet AGL
broken clouds at 2000 feet AGL
Weather: no significant weather observed at this time

METAR text: RJNW 160500Z 24009KT 9999 FEW015 SCT020 BKN070 21/17 Q1010
Conditions at: RJNW (NOTO , JP) observed 0500 UTC 16 October 2021
Temperature: 21.0°C (70°F)
Dewpoint: 17.0°C (63°F) [RH = 78%]
Pressure (altimeter): 29.82 inches Hg (1010.0 mb)
Winds: from the WSW (240 degrees) at 10 MPH (9 knots; 4.6 m/s)
Visibility: 6 or more miles (10+ km)
Ceiling: 7000 feet AGL
Clouds: few clouds at 1500 feet AGL
scattered clouds at 2000 feet AGL
broken clouds at 7000 feet AGL
Weather: no significant weather observed at this time

METAR text: RJNW 160400Z 25009KT 230V300 9999 FEW010 SCT020 BKN070 21/17 Q1011
Conditions at: RJNW (NOTO , JP) observed 0400 UTC 16 October 2021
Temperature: 21.0°C (70°F)
Dewpoint: 17.0°C (63°F) [RH = 78%]
Pressure (altimeter): 29.85 inches Hg (1011.0 mb)
Winds: from the WSW (250 degrees) at 10 MPH (9 knots; 4.6 m/s)
Visibility: 6 or more miles (10+ km)
Ceiling: 7000 feet AGL
Clouds: few clouds at 1000 feet AGL
scattered clouds at 2000 feet AGL
broken clouds at 7000 feet AGL
Weather: no significant weather observed at this time

METAR text: RJNW 160300Z 12005KT 070V190 9999 FEW007 SCT010 BKN070 21/17 Q1011
Conditions at: RJNW (NOTO , JP) observed 0300 UTC 16 October 2021
Temperature: 21.0°C (70°F)
Dewpoint: 17.0°C (63°F) [RH = 78%]
Pressure (altimeter): 29.85 inches Hg (1011.0 mb)
Winds: from the ESE (120 degrees) at 6 MPH (5 knots; 2.6 m/s)
Visibility: 6 or more miles (10+ km)
Ceiling: 7000 feet AGL
Clouds: few clouds at 700 feet AGL
scattered clouds at 1000 feet AGL
broken clouds at 7000 feet AGL
Weather: no significant weather observed at this time

METAR text: RJNW 160200Z 10007KT 9999 -SHRA FEW007 SCT010 BKN030 19/18 Q1012
Conditions at: RJNW (NOTO , JP) observed 0200 UTC 16 October 2021
Temperature: 19.0°C (66°F)
Dewpoint: 18.0°C (64°F) [RH = 94%]
Pressure (altimeter): 29.88 inches Hg (1012.0 mb)
Winds: from the E (100 degrees) at 8 MPH (7 knots; 3.6 m/s)
Visibility: 6 or more miles (10+ km)
Ceiling: 3000 feet AGL
Clouds: few clouds at 700 feet AGL
scattered clouds at 1000 feet AGL
broken clouds at 3000 feet AGL
Weather: -SHRA  (light rain showers)

METAR text: RJNW 160100Z 09008KT 060V120 9999 FEW005 SCT010 BKN060 19/17 Q1014
Conditions at: RJNW (NOTO , JP) observed 0100 UTC 16 October 2021
Temperature: 19.0°C (66°F)
Dewpoint: 17.0°C (63°F) [RH = 88%]
Pressure (altimeter): 29.94 inches Hg (1014.0 mb)
Winds: from the E (90 degrees) at 9 MPH (8 knots; 4.1 m/s)
Visibility: 6 or more miles (10+ km)
Ceiling: 6000 feet AGL
Clouds: few clouds at 500 feet AGL
scattered clouds at 1000 feet AGL
broken clouds at 6000 feet AGL
Weather: no significant weather observed at this time

METAR text: RJNW 160000Z 07009KT 9999 FEW005 SCT060 BKN070 18/16 Q1014
Conditions at: RJNW (NOTO , JP) observed 0000 UTC 16 October 2021
Temperature: 18.0°C (64°F)
Dewpoint: 16.0°C (61°F) [RH = 88%]
Pressure (altimeter): 29.94 inches Hg (1014.0 mb)
Winds: from the ENE (70 degrees) at 10 MPH (9 knots; 4.6 m/s)
Visibility: 6 or more miles (10+ km)
Ceiling: 7000 feet AGL
Clouds: few clouds at 500 feet AGL
scattered clouds at 6000 feet AGL
broken clouds at 7000 feet AGL
Weather: no significant weather observed at this time

METAR text: RJNW 152300Z 05005KT 020V080 9999 FEW003 SCT015 BKN070 17/16 Q1015
Conditions at: RJNW (NOTO , JP) observed 2300 UTC 15 October 2021
Temperature: 17.0°C (63°F)
Dewpoint: 16.0°C (61°F) [RH = 94%]
Pressure (altimeter): 29.97 inches Hg (1015.0 mb)
Winds: from the NE (50 degrees) at 6 MPH (5 knots; 2.6 m/s)
Visibility: 6 or more miles (10+ km)
Ceiling: 7000 feet AGL
Clouds: few clouds at 300 feet AGL
scattered clouds at 1500 feet AGL
broken clouds at 7000 feet AGL
Weather: no significant weather observed at this time

METAR text: RJNW 151000Z 02003KT 330V060 9999 VCSH FEW010 BKN040 BKN100 17/16 Q1018
Conditions at: RJNW (NOTO , JP) observed 1000 UTC 15 October 2021
Temperature: 17.0°C (63°F)
Dewpoint: 16.0°C (61°F) [RH = 94%]
Pressure (altimeter): 30.06 inches Hg (1018.0 mb)
Winds: from the NNE (20 degrees) at 3 MPH (3 knots; 1.5 m/s)
Visibility: 6 or more miles (10+ km)
Ceiling: 4000 feet AGL
Clouds: few clouds at 1000 feet AGL
broken clouds at 4000 feet AGL
broken clouds at 10000 feet AGL
Weather: VCSH  (showers in vicinity)

METAR text: RJNW 150900Z 03003KT 350V060 9999 -SHRA FEW010 BKN035 BKN100 18/16 Q1017
Conditions at: RJNW (NOTO , JP) observed 0900 UTC 15 October 2021
Temperature: 18.0°C (64°F)
Dewpoint: 16.0°C (61°F) [RH = 88%]
Pressure (altimeter): 30.03 inches Hg (1017.0 mb)
Winds: from the NNE (30 degrees) at 3 MPH (3 knots; 1.5 m/s)
Visibility: 6 or more miles (10+ km)
Ceiling: 3500 feet AGL
Clouds: few clouds at 1000 feet AGL
broken clouds at 3500 feet AGL
broken clouds at 10000 feet AGL
Weather: -SHRA  (light rain showers)

METAR text: RJNW 150800Z VRB02KT 9999 VCSH FEW010 SCT040 BKN100 18/16 Q1017
Conditions at: RJNW (NOTO , JP) observed 0800 UTC 15 October 2021
Temperature: 18.0°C (64°F)
Dewpoint: 16.0°C (61°F) [RH = 88%]
Pressure (altimeter): 30.03 inches Hg (1017.0 mb)
Winds: variable direction winds at 2 MPH (2 knots; 1.0 m/s)
Visibility: 6 or more miles (10+ km)
Ceiling: 10000 feet AGL
Clouds: few clouds at 1000 feet AGL
scattered clouds at 4000 feet AGL
broken clouds at 10000 feet AGL
Weather: VCSH  (showers in vicinity)

METAR text: RJNW 150700Z VRB02KT 9999 VCSH FEW010 BKN070 19/15 Q1017
Conditions at: RJNW (NOTO , JP) observed 0700 UTC 15 October 2021
Temperature: 19.0°C (66°F)
Dewpoint: 15.0°C (59°F) [RH = 78%]
Pressure (altimeter): 30.03 inches Hg (1017.0 mb)
Winds: variable direction winds at 2 MPH (2 knots; 1.0 m/s)
Visibility: 6 or more miles (10+ km)
Ceiling: 7000 feet AGL
Clouds: few clouds at 1000 feet AGL
broken clouds at 7000 feet AGL
Weather: VCSH  (showers in vicinity)